Time;durP1;ratioP1;P1;durP2;ratioP2;P2;SDS_P1;SDS_P2;PMS_P1;PMS_P2;Temp;Humidity;BMP_temperature;BMP_pressure;BME280_temperature;BME280_humidity;BME280_pressure;Samples;Min_cycle;Max_cycle;Signal;HPM_P1;HPM_P2
2022/10/19 00:02:02;;;;;;;8.10;1.50;;;;;;;12.46;92.14;102769.16;4950376;29;20217;-75
2022/10/19 00:04:28;;;;;;;6.90;1.83;;;;;;;12.49;92.46;102769.31;4951702;28;20734;-76
2022/10/19 00:06:53;;;;;;;5.20;1.53;;;;;;;12.49;92.29;102762.44;4953132;29;20630;-76
2022/10/19 00:09:19;;;;;;;6.77;1.83;;;;;;;12.48;92.37;102765.84;4954727;28;20192;-75
2022/10/19 00:11:47;;;;;;;5.40;1.33;;;;;;;12.48;92.88;102757.25;4953380;29;20207;-74
2022/10/19 00:14:17;;;;;;;4.13;1.80;;;;;;;12.48;92.93;102760.69;4953067;29;20247;-75
2022/10/19 00:16:45;;;;;;;3.97;1.63;;;;;;;12.46;92.76;102752.06;4952317;28;20216;-75
2022/10/19 00:19:15;;;;;;;6.33;1.67;;;;;;;12.44;93.06;102753.66;4953728;28;20224;-75
2022/10/19 00:21:41;;;;;;;6.43;1.43;;;;;;;12.43;92.97;102757.06;4952747;28;20185;-74
2022/10/19 00:24:07;;;;;;;7.70;1.97;;;;;;;12.45;93.40;102759.69;4953235;29;20729;-75
2022/10/19 00:26:33;;;;;;;5.57;1.80;;;;;;;12.47;93.50;102758.06;4948103;28;20194;-74
2022/10/19 00:28:58;;;;;;;8.20;1.77;;;;;;;12.47;93.38;102769.22;4969125;28;20181;-75
2022/10/19 00:31:25;;;;;;;6.63;1.50;;;;;;;12.47;93.94;102769.22;4953343;28;20642;-75
2022/10/19 00:33:51;;;;;;;4.40;1.60;;;;;;;12.46;93.84;102769.16;4952506;29;20192;-74
2022/10/19 00:36:20;;;;;;;5.03;1.97;;;;;;;12.49;93.82;102777.00;4952788;28;20231;-74
2022/10/19 00:38:46;;;;;;;7.43;1.70;;;;;;;12.50;94.05;102773.63;4951531;29;20205;-75
2022/10/19 00:41:12;;;;;;;10.07;1.90;;;;;;;12.50;93.52;102776.19;4951792;28;20305;-75
2022/10/19 00:43:57;;;;;;;9.23;1.70;;;;;;;12.49;94.07;102770.16;4954090;28;20729;-74
2022/10/19 00:46:23;;;;;;;6.23;1.67;;;;;;;12.51;93.80;102775.38;4953629;28;20240;-75
2022/10/19 00:48:51;;;;;;;5.83;1.63;;;;;;;12.49;93.59;102780.44;4953274;28;20217;-75
2022/10/19 00:51:17;;;;;;;6.40;1.70;;;;;;;12.49;93.75;102782.16;4953977;28;20221;-74
2022/10/19 00:53:43;;;;;;;8.60;1.40;;;;;;;12.49;93.79;102784.72;4954073;28;20189;-74
2022/10/19 00:56:13;;;;;;;3.67;1.23;;;;;;;12.50;93.63;102786.47;4953729;28;20197;-75
2022/10/19 00:58:41;;;;;;;8.17;1.50;;;;;;;12.47;93.62;102784.66;4951813;29;20215;-74
2022/10/19 01:01:08;;;;;;;5.97;1.23;;;;;;;12.48;93.15;102786.41;4951844;29;20204;-75
2022/10/19 01:03:34;;;;;;;4.83;1.50;;;;;;;12.49;93.60;102789.84;4953831;28;20190;-74
2022/10/19 01:06:00;;;;;;;8.33;1.40;;;;;;;12.48;93.28;102783.81;4951420;29;20259;-74
2022/10/19 01:08:26;;;;;;;7.50;1.40;;;;;;;12.48;93.42;102785.50;4953713;28;20212;-74
2022/10/19 01:11:28;;;;;;;9.17;2.03;;;;;;;12.49;93.54;102787.28;4953495;28;20961;-74
2022/10/19 01:14:02;;;;;;;6.40;1.60;;;;;;;12.49;93.33;102782.16;4953666;28;20555;-74
2022/10/19 01:16:45;;;;;;;7.07;1.60;;;;;;;12.50;93.27;102778.75;4951139;29;20264;-74
2022/10/19 01:19:56;;;;;;;5.23;1.13;;;;;;;12.49;92.98;102789.84;4948667;29;20686;-75
2022/10/19 01:22:37;;;;;;;5.83;1.27;;;;;;;12.50;93.11;102779.63;4948928;29;20197;-74
2022/10/19 01:25:17;;;;;;;3.87;1.40;;;;;;;12.48;93.02;102778.69;4952863;29;20287;-74
2022/10/19 01:27:59;;;;;;;8.70;1.73;;;;;;;12.47;93.21;102776.94;4952857;29;20215;-74
2022/10/19 01:30:50;;;;;;;5.97;1.67;;;;;;;12.48;93.34;102770.97;4953178;28;20205;-74
2022/10/19 01:33:28;;;;;;;6.43;1.30;;;;;;;12.46;93.55;102776.88;4935824;29;20215;-74
2022/10/19 01:36:21;;;;;;;4.67;1.60;;;;;;;12.45;92.94;102775.97;4950633;29;20193;-74
2022/10/19 01:39:11;;;;;;;6.70;1.40;;;;;;;12.45;93.00;102768.25;4950829;29;20307;-74
2022/10/19 01:41:55;;;;;;;7.70;1.67;;;;;;;12.45;92.95;102768.25;4939345;29;20201;-74
2022/10/19 01:44:36;;;;;;;8.17;1.60;;;;;;;12.45;93.27;102773.41;4948284;29;20193;-74
2022/10/19 01:47:21;;;;;;;5.17;1.47;;;;;;;12.45;93.92;102772.53;4948592;29;20193;-74
2022/10/19 01:49:57;;;;;;;7.60;2.10;;;;;;;12.44;93.48;102766.53;4944792;29;20218;-75
2022/10/19 01:52:25;;;;;;;5.23;1.90;;;;;;;12.43;93.24;102776.72;4945955;28;20195;-74
2022/10/19 01:54:55;;;;;;;8.10;1.70;;;;;;;12.46;93.22;102782.91;4952401;28;20204;-74
2022/10/19 01:57:25;;;;;;;6.33;1.73;;;;;;;12.44;93.55;102779.38;4950504;28;20225;-75
2022/10/19 01:59:53;;;;;;;6.00;1.33;;;;;;;12.45;93.54;102778.53;4948359;29;20694;-75
2022/10/19 02:02:20;;;;;;;9.07;1.53;;;;;;;12.43;93.08;102780.19;4951453;29;20215;-74
2022/10/19 02:04:48;;;;;;;5.23;1.60;;;;;;;12.45;93.08;102769.97;4947822;28;20676;-75
2022/10/19 02:07:15;;;;;;;3.60;1.37;;;;;;;12.44;92.88;102774.22;4951142;29;20570;-74
2022/10/19 02:09:40;;;;;;;7.27;1.60;;;;;;;12.45;92.67;102777.69;4947980;28;20228;-74
2022/10/19 02:12:09;;;;;;;4.00;1.30;;;;;;;12.43;92.60;102772.47;4947592;28;20189;-74
2022/10/19 02:14:43;;;;;;;5.97;1.50;;;;;;;12.44;92.56;102768.22;4945617;28;20646;-74
2022/10/19 02:17:13;;;;;;;7.60;2.00;;;;;;;12.43;92.91;102769.91;4944482;29;20648;-75
2022/10/19 02:19:39;;;;;;;7.97;1.87;;;;;;;12.42;93.13;102768.16;4945712;28;20786;-75
2022/10/19 02:22:05;;;;;;;4.43;1.60;;;;;;;12.41;93.13;102768.09;4944980;28;20211;-75
2022/10/19 02:24:30;;;;;;;10.63;1.97;;;;;;;12.40;93.69;102766.34;4963145;28;20279;-74
2022/10/19 02:26:56;;;;;;;5.37;1.83;;;;;;;12.39;93.03;102774.88;4949925;28;20344;-76
2022/10/19 02:29:22;;;;;;;7.47;1.87;;;;;;;12.41;93.07;102773.22;4947472;29;20670;-76
2022/10/19 02:31:48;;;;;;;5.53;1.43;;;;;;;12.40;93.27;102777.47;4949119;28;20223;-75
2022/10/19 02:34:13;;;;;;;8.93;1.80;;;;;;;12.40;93.11;102771.47;4950697;28;20233;-75
2022/10/19 02:36:39;;;;;;;7.73;1.93;;;;;;;12.38;93.09;102773.09;4948778;28;20189;-75
2022/10/19 02:39:06;;;;;;;6.67;1.50;;;;;;;12.38;93.32;102771.41;4938207;29;20315;-75
2022/10/19 02:41:38;;;;;;;4.43;1.37;;;;;;;12.35;93.29;102775.53;4946378;28;20336;-74
2022/10/19 02:44:09;;;;;;;5.83;1.40;;;;;;;12.33;93.16;102775.47;4951814;29;20185;-75
2022/10/19 02:46:41;;;;;;;8.53;2.07;;;;;;;12.31;93.25;102779.66;4950791;28;20181;-76
2022/10/19 02:49:08;;;;;;;8.23;1.70;;;;;;;12.36;93.34;102787.56;4951152;29;20663;-74
2022/10/19 02:51:39;;;;;;;4.40;1.30;;;;;;;12.34;92.54;102777.22;4951584;28;20236;-75
2022/10/19 02:54:06;;;;;;;9.37;1.80;;;;;;;12.28;92.90;102783.78;4950526;29;20677;-74
2022/10/19 02:56:33;;;;;;;6.67;1.60;;;;;;;12.28;92.63;102786.34;4951345;28;20192;-74
2022/10/19 02:58:58;;;;;;;8.47;1.40;;;;;;;12.28;92.40;102774.41;4948917;29;20702;-75
2022/10/19 03:01:24;;;;;;;7.83;1.63;;;;;;;12.27;92.29;102774.31;4950297;28;20220;-74
2022/10/19 03:03:49;;;;;;;9.03;1.60;;;;;;;12.25;92.23;102781.06;4948646;28;20209;-75
2022/10/19 03:06:15;;;;;;;7.70;1.80;;;;;;;12.22;91.69;102779.25;4950204;29;20617;-75
2022/10/19 03:08:40;;;;;;;3.63;1.43;;;;;;;12.21;91.80;102780.06;4951571;28;20180;-74
2022/10/19 03:11:06;;;;;;;7.73;1.73;;;;;;;12.20;91.33;102786.03;4951492;28;20582;-75
2022/10/19 03:13:32;;;;;;;7.87;1.97;;;;;;;12.20;91.70;102785.13;4951451;28;20597;-75
2022/10/19 03:15:57;;;;;;;7.40;1.47;;;;;;;12.14;91.95;102787.44;4950069;29;20203;-75
2022/10/19 03:18:23;;;;;;;5.07;1.30;;;;;;;12.13;91.12;102783.97;4951430;28;20272;-74
2022/10/19 03:20:48;;;;;;;11.97;1.80;;;;;;;12.13;90.57;102795.97;4950422;28;20310;-74
2022/10/19 03:23:13;;;;;;;8.77;1.70;;;;;;;12.13;90.34;102796.81;4951353;28;20196;-75
2022/10/19 03:25:39;;;;;;;9.00;2.00;;;;;;;12.11;89.59;102798.44;4951422;28;20545;-75
2022/10/19 03:28:04;;;;;;;8.67;1.60;;;;;;;12.09;87.62;102797.53;4950114;29;20216;-76
2022/10/19 03:30:29;;;;;;;7.90;1.57;;;;;;;12.08;86.72;102800.88;4951377;28;20347;-75
2022/10/19 03:32:55;;;;;;;8.77;1.43;;;;;;;12.08;85.96;102800.00;4949600;29;20288;-75
2022/10/19 03:35:20;;;;;;;5.83;1.30;;;;;;;12.08;85.74;102803.44;4951031;28;20433;-76
2022/10/19 03:37:46;;;;;;;8.10;1.77;;;;;;;12.12;85.18;102809.63;4950223;28;20217;-74
2022/10/19 03:40:11;;;;;;;7.27;1.30;;;;;;;12.09;85.08;102812.03;4948929;28;20235;-75
2022/10/19 03:42:36;;;;;;;8.53;1.97;;;;;;;12.12;84.61;102818.19;4950203;28;20658;-76
2022/10/19 03:45:02;;;;;;;7.20;1.60;;;;;;;12.13;84.81;102821.63;4951386;28;20208;-75
2022/10/19 03:47:28;;;;;;;7.00;1.73;;;;;;;12.12;85.03;102823.31;4950985;28;20185;-74
2022/10/19 03:49:53;;;;;;;6.47;1.30;;;;;;;12.11;84.64;102820.66;4949503;28;20646;-75
2022/10/19 03:52:19;;;;;;;5.30;1.50;;;;;;;12.11;84.96;102811.28;4949344;28;20189;-74
2022/10/19 03:54:48;;;;;;;5.63;1.07;;;;;;;12.12;84.66;102818.19;4947812;29;20324;-74
2022/10/19 03:57:13;;;;;;;8.80;1.67;;;;;;;12.08;84.40;102825.69;4947435;28;20624;-75
2022/10/19 03:59:39;;;;;;;5.60;1.10;;;;;;;12.09;84.41;102830.91;4943375;29;20209;-75
2022/10/19 04:02:04;;;;;;;6.47;1.20;;;;;;;12.08;84.58;102831.69;4951081;28;20186;-75
2022/10/19 04:04:29;;;;;;;5.30;1.27;;;;;;;12.12;84.16;102840.44;4951108;28;20770;-76
2022/10/19 04:06:55;;;;;;;9.13;1.60;;;;;;;12.08;83.57;102835.97;4950816;28;20640;-75
2022/10/19 04:09:22;;;;;;;5.03;1.00;;;;;;;12.08;83.58;102843.66;4949685;29;20188;-75
2022/10/19 04:11:49;;;;;;;6.13;1.20;;;;;;;12.05;83.82;102844.41;4949800;28;20208;-75
2022/10/19 04:14:16;;;;;;;5.70;1.27;;;;;;;12.06;83.53;102847.84;4951914;28;20194;-75
2022/10/19 04:16:41;;;;;;;5.67;1.47;;;;;;;12.08;83.77;102848.81;4940338;28;20202;-74
2022/10/19 04:19:07;;;;;;;7.03;1.13;;;;;;;12.06;83.09;102852.97;4946802;28;20338;-75
2022/10/19 04:21:37;;;;;;;7.33;1.30;;;;;;;12.08;83.16;102851.38;4945465;28;20196;-75
2022/10/19 04:24:09;;;;;;;4.50;1.17;;;;;;;12.08;83.57;102851.38;4947912;29;20181;-75
2022/10/19 04:26:39;;;;;;;3.53;0.83;;;;;;;12.08;83.69;102854.78;4944115;28;20558;-75
2022/10/19 04:29:05;;;;;;;4.30;1.03;;;;;;;12.05;83.11;102857.25;4947657;29;20373;-75
2022/10/19 04:31:30;;;;;;;4.37;1.00;;;;;;;12.07;82.86;102857.31;4950314;28;20311;-76
2022/10/19 04:33:56;;;;;;;6.00;1.03;;;;;;;12.07;82.65;102854.75;4952840;28;20197;-76
2022/10/19 04:36:22;;;;;;;3.27;0.90;;;;;;;12.05;82.83;102866.63;4952751;28;20628;-75
2022/10/19 04:38:48;;;;;;;8.20;1.23;;;;;;;12.05;83.13;102867.53;4950780;28;20225;-75
2022/10/19 04:41:16;;;;;;;4.93;1.30;;;;;;;12.03;83.08;102861.41;4947007;28;20224;-74
2022/10/19 04:43:44;;;;;;;5.97;1.20;;;;;;;12.04;83.37;102860.63;4948814;28;20192;-75
2022/10/19 04:46:14;;;;;;;4.17;1.10;;;;;;;12.03;83.76;102865.69;4950684;28;20217;-75
2022/10/19 04:48:40;;;;;;;5.67;1.03;;;;;;;12.01;84.33;102868.19;4947333;28;20236;-75
2022/10/19 04:51:06;;;;;;;4.73;1.00;;;;;;;12.00;83.81;102861.28;4949944;29;20922;-75
2022/10/19 04:53:33;;;;;;;7.43;1.20;;;;;;;12.03;84.03;102871.69;4946059;28;20201;-74
2022/10/19 04:55:59;;;;;;;5.53;1.30;;;;;;;12.00;83.78;102880.94;4946621;29;20204;-75
2022/10/19 04:58:24;;;;;;;6.73;1.10;;;;;;;12.01;84.04;102873.31;4949504;29;20209;-75
2022/10/19 05:00:50;;;;;;;6.80;1.27;;;;;;;12.04;83.97;102873.47;4953867;28;20219;-75
2022/10/19 05:03:16;;;;;;;5.93;1.70;;;;;;;12.01;83.47;102859.59;4952924;28;20238;-75
2022/10/19 05:05:42;;;;;;;9.00;1.20;;;;;;;11.99;84.45;102862.09;4952095;28;20197;-75
2022/10/19 05:08:08;;;;;;;3.50;0.93;;;;;;;12.00;84.08;102871.56;4952005;28;20189;-75
2022/10/19 05:10:35;;;;;;;6.63;1.20;;;;;;;12.00;84.10;102866.44;4950775;28;20293;-75
2022/10/19 05:13:01;;;;;;;4.67;1.27;;;;;;;11.98;84.56;102870.59;4947606;29;20658;-76
2022/10/19 05:15:27;;;;;;;6.27;1.60;;;;;;;11.97;84.53;102867.97;4945797;28;20190;-77
2022/10/19 05:17:53;;;;;;;4.73;1.53;;;;;;;11.95;84.72;102872.16;4947918;29;20289;-75
2022/10/19 05:20:19;;;;;;;6.03;1.10;;;;;;;11.92;84.30;102865.19;4951536;29;20247;-74
2022/10/19 05:22:44;;;;;;;4.43;1.37;;;;;;;11.94;84.75;102870.41;4952113;29;20268;-75
2022/10/19 05:25:10;;;;;;;4.93;1.47;;;;;;;11.96;85.06;102863.63;4952105;29;20197;-74
2022/10/19 05:27:35;;;;;;;5.60;1.30;;;;;;;11.97;85.39;102865.38;4951672;29;20225;-75
2022/10/19 05:30:00;;;;;;;6.73;1.30;;;;;;;11.96;85.75;102868.78;4953151;28;20213;-75
2022/10/19 05:32:27;;;;;;;3.80;0.80;;;;;;;11.97;85.70;102856.00;4952332;28;20236;-75
2022/10/19 05:34:52;;;;;;;5.10;1.10;;;;;;;11.96;85.58;102856.81;4934971;28;20228;-75
2022/10/19 05:37:18;;;;;;;7.77;1.37;;;;;;;11.95;85.47;102859.31;4948775;28;20649;-74
2022/10/19 05:39:43;;;;;;;5.00;1.00;;;;;;;11.94;85.30;102858.44;4950523;28;20225;-74
2022/10/19 05:42:09;;;;;;;5.37;1.23;;;;;;;11.94;85.24;102866.13;4950841;28;20213;-75
2022/10/19 05:44:34;;;;;;;5.30;1.13;;;;;;;11.92;85.69;102861.72;4951565;29;20197;-73
2022/10/19 05:47:00;;;;;;;7.57;1.87;;;;;;;11.93;85.67;102860.94;4952523;28;20197;-74
2022/10/19 05:49:26;;;;;;;5.97;1.10;;;;;;;11.90;85.38;102853.97;4951343;29;20351;-75
2022/10/19 05:51:51;;;;;;;4.97;1.27;;;;;;;11.90;86.52;102853.97;4952824;28;20678;-75
2022/10/19 05:54:17;;;;;;;4.20;1.40;;;;;;;11.93;85.23;102860.94;4951974;28;20188;-76
2022/10/19 05:56:42;;;;;;;7.83;1.53;;;;;;;11.93;85.62;102860.94;4952505;28;20185;-75
2022/10/19 05:59:13;;;;;;;6.07;1.23;;;;;;;11.93;85.50;102851.53;4950411;28;20212;-76
2022/10/19 06:01:38;;;;;;;5.53;1.10;;;;;;;11.96;85.69;102867.09;4951067;28;20311;-75
2022/10/19 06:04:05;;;;;;;3.27;1.37;;;;;;;11.96;86.29;102861.06;4951736;28;20288;-75
2022/10/19 06:06:30;;;;;;;6.93;1.20;;;;;;;11.97;86.01;102867.97;4952192;28;20197;-75
2022/10/19 06:08:57;;;;;;;7.80;1.60;;;;;;;11.99;86.21;102862.09;4951821;28;20201;-75
2022/10/19 06:11:37;;;;;;;4.17;1.30;;;;;;;11.97;86.73;102871.41;4951107;28;20217;-74
2022/10/19 06:14:06;;;;;;;5.10;1.80;;;;;;;11.96;87.10;102879.03;4952933;29;20193;-75
2022/10/19 06:16:32;;;;;;;6.70;1.50;;;;;;;11.96;87.07;102876.47;4943891;28;20229;-74
2022/10/19 06:18:58;;;;;;;8.60;1.13;;;;;;;11.95;87.43;102870.47;4950271;28;20563;-73
2022/10/19 06:21:26;;;;;;;4.83;1.20;;;;;;;12.02;86.54;102871.63;4950184;28;20316;-75
2022/10/19 06:23:54;;;;;;;11.93;1.70;;;;;;;12.00;86.40;102873.25;4950587;28;20193;-75
2022/10/19 06:26:20;;;;;;;5.43;1.40;;;;;;;11.99;85.90;102874.06;4950893;28;20659;-76
2022/10/19 06:28:46;;;;;;;8.67;1.63;;;;;;;12.03;85.33;102869.13;4950402;28;20684;-74
2022/10/19 06:31:12;;;;;;;8.40;2.03;;;;;;;12.08;84.88;102867.63;4950427;28;20260;-75
2022/10/19 06:33:39;;;;;;;4.53;1.30;;;;;;;12.11;84.74;102867.78;4943161;28;20210;-73
2022/10/19 06:36:17;;;;;;;6.57;1.30;;;;;;;12.15;84.45;102876.50;4946907;28;20197;-74
2022/10/19 06:38:43;;;;;;;5.57;1.40;;;;;;;12.18;84.05;102868.94;4950291;29;20217;-74
2022/10/19 06:41:09;;;;;;;8.10;1.97;;;;;;;12.22;84.01;102860.56;4951669;28;20212;-74
2022/10/19 06:43:35;;;;;;;9.47;1.60;;;;;;;12.26;83.55;102870.19;4949665;28;20189;-74
2022/10/19 06:46:13;;;;;;;6.23;1.60;;;;;;;12.28;84.56;102876.25;4949678;28;20211;-73
2022/10/19 06:48:40;;;;;;;5.03;1.37;;;;;;;12.29;83.75;102875.44;4948046;28;20240;-74
2022/10/19 06:51:06;;;;;;;5.30;1.67;;;;;;;12.26;84.03;102868.47;4946166;29;20799;-74
2022/10/19 06:53:33;;;;;;;4.63;1.50;;;;;;;12.24;84.09;102864.97;4947216;29;20196;-74
2022/10/19 06:55:59;;;;;;;6.17;1.60;;;;;;;12.22;84.11;102870.84;4944011;29;20205;-74
2022/10/19 06:58:25;;;;;;;7.10;1.70;;;;;;;12.19;83.99;102874.16;4944810;28;20213;-75
2022/10/19 07:00:58;;;;;;;5.10;1.63;;;;;;;12.23;84.56;102867.47;4933741;29;20222;-74
2022/10/19 07:03:24;;;;;;;7.87;2.03;;;;;;;12.38;84.40;102876.75;4942545;29;20189;-73
2022/10/19 07:05:58;;;;;;;10.00;2.17;;;;;;;12.63;84.45;102871.00;4938506;29;20202;-75
2022/10/19 07:08:26;;;;;;;7.70;1.70;;;;;;;12.85;83.45;102865.94;4949706;29;20566;-73
2022/10/19 07:10:53;;;;;;;3.97;1.60;;;;;;;12.99;81.84;102866.56;4949980;28;20212;-74
2022/10/19 07:13:19;;;;;;;10.00;2.37;;;;;;;13.16;81.06;102863.03;4949852;28;20193;-76
2022/10/19 07:15:45;;;;;;;10.20;1.90;;;;;;;13.29;80.57;102873.88;4947377;28;20197;-76
2022/10/19 07:18:10;;;;;;;7.27;1.73;;;;;;;13.47;80.05;102879.75;4949381;29;20209;-75
2022/10/19 07:20:36;;;;;;;12.67;1.80;;;;;;;13.55;79.70;102880.94;4946965;28;20296;-75
2022/10/19 07:23:01;;;;;;;8.40;2.00;;;;;;;13.67;79.68;102868.56;4946811;29;20193;-76
2022/10/19 07:25:28;;;;;;;6.63;1.80;;;;;;;13.69;79.45;102882.38;4941389;28;20197;-76
2022/10/19 07:27:54;;;;;;;8.87;1.70;;;;;;;13.65;79.44;102883.06;4942892;28;20189;-75
2022/10/19 07:30:19;;;;;;;8.80;2.30;;;;;;;13.92;77.84;102893.56;4930876;28;20224;-76
2022/10/19 07:32:45;;;;;;;8.77;2.07;;;;;;;14.09;78.25;102887.38;4943709;28;20224;-76
2022/10/19 07:35:10;;;;;;;8.33;2.37;;;;;;;14.10;77.57;102892.59;4913675;28;20237;-76
2022/10/19 07:37:36;;;;;;;8.87;2.77;;;;;;;14.23;76.89;102904.25;4947872;29;20192;-75
2022/10/19 07:40:01;;;;;;;8.03;2.10;;;;;;;14.28;76.79;102907.88;4945616;28;21103;-76
2022/10/19 07:42:29;;;;;;;10.33;2.30;;;;;;;14.37;76.33;102905.66;4931599;28;20201;-76
2022/10/19 07:44:55;;;;;;;7.53;1.90;;;;;;;14.19;76.26;102907.50;4948831;28;20305;-76
2022/10/19 07:47:20;;;;;;;9.40;2.23;;;;;;;14.40;75.79;102911.78;4948875;29;20749;-76
2022/10/19 07:49:46;;;;;;;12.70;2.37;;;;;;;14.65;75.32;102918.72;4948509;28;20227;-75
2022/10/19 07:52:11;;;;;;;11.73;2.27;;;;;;;14.76;74.40;102912.25;4949338;29;20201;-76
2022/10/19 07:54:36;;;;;;;8.97;2.47;;;;;;;14.92;73.71;102911.97;4945638;28;20284;-76
2022/10/19 07:57:02;;;;;;;8.47;2.00;;;;;;;15.12;73.57;102914.41;4948096;28;20271;-76
2022/10/19 07:59:27;;;;;;;7.90;2.07;;;;;;;15.14;73.09;102919.63;4950110;29;20224;-76
2022/10/19 08:01:53;;;;;;;13.43;2.40;;;;;;;15.16;73.14;102925.72;4952849;29;20196;-76
2022/10/19 08:04:19;;;;;;;8.27;2.30;;;;;;;15.44;72.15;102915.50;4951486;29;20189;-76
2022/10/19 08:06:44;;;;;;;9.43;2.43;;;;;;;15.67;71.01;102917.13;4952863;29;20212;-77
2022/10/19 08:09:10;;;;;;;11.53;2.70;;;;;;;15.65;70.45;102914.50;4968116;28;20225;-76
2022/10/19 08:11:35;;;;;;;11.03;2.53;;;;;;;15.84;70.29;102921.13;4950172;29;20197;-76
2022/10/19 08:14:02;;;;;;;8.77;2.50;;;;;;;16.03;69.96;102918.28;4968220;28;20208;-76
2022/10/19 08:16:36;;;;;;;7.37;2.50;;;;;;;16.25;69.38;102918.09;4952158;28;20279;-76
2022/10/19 08:19:15;;;;;;;7.50;2.30;;;;;;;16.37;68.70;102919.34;4951158;29;20213;-76
2022/10/19 08:21:42;;;;;;;8.63;1.93;;;;;;;16.50;67.00;102912.84;4951020;28;21057;-76
2022/10/19 08:24:09;;;;;;;11.10;2.43;;;;;;;16.41;67.63;102917.75;4950327;28;20228;-76
2022/10/19 08:26:39;;;;;;;11.97;2.57;;;;;;;16.37;67.43;102916.75;4948824;28;20193;-76
2022/10/19 08:29:14;;;;;;;10.53;2.43;;;;;;;16.75;65.67;102910.09;4951606;29;20217;-76
2022/10/19 08:31:40;;;;;;;6.73;2.00;;;;;;;16.99;65.66;102909.03;4941118;28;20240;-76
2022/10/19 08:34:06;;;;;;;13.23;2.07;;;;;;;17.28;64.28;102917.56;4937612;29;20203;-76
2022/10/19 08:36:34;;;;;;;8.83;2.00;;;;;;;17.36;63.53;102919.50;4950576;28;20208;-76
2022/10/19 08:39:01;;;;;;;12.13;2.88;;;;;;;17.77;62.44;102918.81;4936156;28;20725;-77
2022/10/19 08:42:08;;;;;;;6.70;2.22;;;;;;;18.44;60.88;102927.28;4952708;28;20247;-77
2022/10/19 08:44:33;;;;;;;6.45;2.30;;;;;;;18.60;58.68;102925.91;4951390;29;20272;-77
2022/10/19 08:47:20;;;;;;;9.43;2.13;;;;;;;18.07;59.80;102929.03;4950641;28;20300;-76
2022/10/19 08:49:47;;;;;;;6.77;2.10;;;;;;;17.67;61.08;102932.41;4949327;29;20208;-75
2022/10/19 08:52:20;;;;;;;8.33;2.40;;;;;;;17.09;64.16;102936.06;4952588;28;20276;-76
2022/10/19 08:54:53;;;;;;;10.60;3.13;;;;;;;16.73;64.86;102941.13;4952994;28;20189;-75
2022/10/19 08:57:31;;;;;;;10.17;2.17;;;;;;;16.22;66.21;102951.63;4951771;28;20331;-76
2022/10/19 09:00:32;;;;;;;7.13;2.13;;;;;;;16.27;67.64;102950.94;4948031;29;20228;-75
2022/10/19 09:03:15;;;;;;;7.17;1.97;;;;;;;19.44;57.59;102935.28;4946095;29;20601;-76
2022/10/19 09:05:53;;;;;;;8.20;2.00;;;;;;;18.85;57.22;102939.38;4951120;28;20569;-76
2022/10/19 09:08:19;;;;;;;6.53;1.70;;;;;;;17.63;60.02;102940.06;4949341;28;20185;-75
2022/10/19 09:10:49;;;;;;;9.23;2.40;;;;;;;17.56;61.54;102948.53;4950599;29;20220;-75
2022/10/19 09:13:40;;;;;;;10.83;3.97;;;;;;;18.08;60.54;102944.63;4966531;28;20197;-75
2022/10/19 09:16:11;;;;;;;7.00;2.20;;;;;;;17.98;61.69;102945.25;4941291;28;20189;-75
2022/10/19 09:18:37;;;;;;;9.30;2.83;;;;;;;18.03;61.11;102941.06;4950269;28;20216;-75
2022/10/19 09:21:14;;;;;;;9.90;2.30;;;;;;;17.41;62.47;102943.84;4952067;28;20728;-75
2022/10/19 09:24:04;;;;;;;8.90;2.50;;;;;;;16.99;64.42;102947.00;4945453;29;20602;-75
2022/10/19 09:26:45;;;;;;;9.90;2.30;;;;;;;19.15;59.25;102939.03;4935188;28;20229;-75
2022/10/19 09:29:22;;;;;;;7.87;1.70;;;;;;;22.44;47.60;102926.41;4952755;29;20592;-76
2022/10/19 09:31:53;;;;;;;6.55;2.08;;;;;;;22.75;46.46;102924.81;4938375;28;20224;-77
2022/10/19 09:34:35;;;;;;;6.03;1.98;;;;;;;20.45;50.84;102946.38;4947103;29;20181;-76
2022/10/19 09:37:01;;;;;;;5.90;1.80;;;;;;;19.68;53.28;102941.78;4952704;29;20284;-76
2022/10/19 09:39:29;;;;;;;6.73;1.67;;;;;;;19.35;54.58;102943.78;4952613;28;20260;-76
2022/10/19 09:41:56;;;;;;;8.77;2.17;;;;;;;24.27;43.33;102914.38;4951384;28;20666;-77
2022/10/19 09:44:22;;;;;;;4.85;1.80;;;;;;;27.06;37.44;102904.75;4953174;28;20213;-77
2022/10/19 09:47:04;;;;;;;4.93;2.03;;;;;;;25.77;39.02;102908.13;4950916;28;20196;-76
2022/10/19 09:49:44;;;;;;;7.28;1.80;;;;;;;21.41;45.62;102925.72;4952436;28;20209;-75
2022/10/19 09:52:35;;;;;;;5.95;2.03;;;;;;;19.70;51.52;102941.75;4949753;28;20223;-76
2022/10/19 09:55:03;;;;;;;6.87;1.60;;;;;;;18.71;54.16;102947.72;4948949;28;20195;-75
2022/10/19 09:57:29;;;;;;;8.53;2.50;;;;;;;18.53;55.80;102944.75;4950308;29;20209;-76
2022/10/19 09:59:55;;;;;;;5.27;2.13;;;;;;;21.46;49.58;102924.06;4952103;28;20217;-76
2022/10/19 10:02:28;;;;;;;6.80;1.90;;;;;;;26.83;38.07;102912.13;4946586;28;20288;-76
2022/10/19 10:04:56;;;;;;;5.68;1.80;;;;;;;28.97;34.28;102896.59;4965194;28;20208;-75
2022/10/19 10:07:26;;;;;;;4.72;1.77;;;;;;;30.13;31.84;102900.66;4948797;28;20201;-76
2022/10/19 10:09:52;;;;;;;6.38;2.25;;;;;;;27.80;34.92;102906.16;4949577;29;20209;-76
2022/10/19 10:12:17;;;;;;;4.85;1.65;;;;;;;23.94;40.72;102924.94;4946656;29;20200;-75
2022/10/19 10:14:43;;;;;;;5.70;1.80;;;;;;;23.21;42.69;102915.38;4950901;29;20252;-77
2022/10/19 10:17:21;;;;;;;4.97;1.77;;;;;;;21.87;45.62;102936.56;4951170;29;20197;-78
2022/10/19 10:19:56;;;;;;;4.50;1.60;;;;;;;24.54;40.86;102919.50;4951433;28;20225;-78
2022/10/19 10:22:29;;;;;;;7.97;1.90;;;;;;;27.54;34.74;102913.63;4951853;28;20192;-76
2022/10/19 10:24:55;;;;;;;6.18;1.80;;;;;;;31.46;29.38;102898.22;4965514;28;20269;-76
2022/10/19 10:27:33;;;;;;;5.20;1.98;;;;;;;33.49;27.17;102896.47;4949171;28;20192;-77
2022/10/19 10:30:05;;;;;;;3.72;1.65;;;;;;;29.94;31.39;102905.56;4949804;29;20212;-76
2022/10/19 10:32:36;;;;;;;3.95;1.48;;;;;;;25.68;35.99;102919.59;4936642;28;20232;-76
2022/10/19 10:35:06;;;;;;;6.28;1.75;;;;;;;22.69;41.99;102940.47;4944504;28;20193;-78
2022/10/19 10:37:39;;;;;;;5.95;1.50;;;;;;;21.35;45.22;102949.13;4944825;28;20204;-74
2022/10/19 10:40:13;;;;;;;4.77;1.40;;;;;;;20.27;47.30;102959.13;4951526;29;20217;-78
2022/10/19 10:42:44;;;;;;;7.77;1.53;;;;;;;19.88;48.47;102966.34;4946265;28;20197;-77
2022/10/19 10:45:30;;;;;;;7.60;1.50;;;;;;;19.78;47.81;102966.16;4942026;29;20193;-75
2022/10/19 10:47:57;;;;;;;3.73;1.47;;;;;;;19.82;48.63;102963.66;4948974;29;20192;-78
2022/10/19 10:50:33;;;;;;;3.00;1.37;;;;;;;24.08;41.41;102942.34;4952674;28;20212;-76
2022/10/19 10:53:01;;;;;;;6.55;1.63;;;;;;;23.57;41.43;102934.53;4953388;28;20244;-79
2022/10/19 10:55:27;;;;;;;5.93;1.70;;;;;;;29.99;29.87;102908.97;4953037;28;20220;-79
2022/10/19 10:58:20;;;;;;;2.03;1.20;;;;;;;32.79;26.31;102900.31;4947591;28;20260;-77
2022/10/19 11:00:49;;;;;;;3.65;1.48;;;;;;;32.13;27.84;102897.56;4947473;29;20299;-79
2022/10/19 11:03:25;;;;;;;5.05;1.70;;;;;;;34.12;25.17;102897.16;4950214;29;20549;-77
2022/10/19 11:05:56;;;;;;;5.32;1.80;;;;;;;28.75;30.68;102918.25;4945133;29;20194;-79
2022/10/19 11:08:29;;;;;;;6.40;2.28;;;;;;;23.38;40.00;102940.66;4947982;29;20184;-81
2022/10/19 11:11:13;;;;;;;2.85;1.20;;;;;;;21.42;44.37;102946.59;4949476;28;20589;-79
2022/10/19 11:13:57;;;;;;;4.70;1.80;;;;;;;20.73;46.02;102942.38;4950402;29;20292;-79
2022/10/19 11:16:30;;;;;;;4.90;1.47;;;;;;;20.25;47.74;102945.25;4949526;29;20199;-80
2022/10/19 11:18:58;;;;;;;9.13;1.63;;;;;;;19.88;48.52;102948.16;4948930;29;20218;-77
2022/10/19 11:21:40;;;;;;;5.50;1.60;;;;;;;19.97;47.63;102945.69;4949885;29;20225;-77
2022/10/19 11:24:34;;;;;;;7.47;1.63;;;;;;;19.45;50.66;102937.03;4943773;28;20204;-81
2022/10/19 11:27:21;;;;;;;3.67;1.47;;;;;;;24.15;41.89;102909.16;4948826;29;20666;-78
2022/10/19 11:29:59;;;;;;;3.53;1.30;;;;;;;23.16;41.27;102909.22;4948366;29;20204;-78
2022/10/19 11:32:52;;;;;;;6.30;1.77;;;;;;;29.24;31.28;102879.25;4937257;28;20232;-77
2022/10/19 11:35:20;;;;;;;2.95;1.40;;;;;;;32.00;25.93;102875.91;4954061;29;20537;-78
2022/10/19 11:38:39;;;;;;;5.05;1.80;;;;;;;35.32;23.28;102864.66;4954320;28;20195;-76